createdAt,value
2022-10-18T00:02:14.393Z,101661.66
2022-10-18T00:05:16.541Z,101654.53
2022-10-18T00:08:19.701Z,101659.84
2022-10-18T00:11:21.674Z,101655.38
2022-10-18T00:14:23.962Z,101646.50
2022-10-18T00:17:26.001Z,101652.69
2022-10-18T00:20:28.497Z,101641.00
2022-10-18T00:23:31.768Z,101640.00
2022-10-18T00:26:34.087Z,101637.22
2022-10-18T00:29:36.060Z,101631.84
2022-10-18T00:32:40.159Z,101636.25
2022-10-18T00:35:42.490Z,101625.56
2022-10-18T00:38:45.734Z,101621.03
2022-10-18T00:41:48.713Z,101621.09
2022-10-18T00:44:50.887Z,101615.84
2022-10-18T00:48:00.791Z,101616.75
2022-10-18T00:51:03.174Z,101615.03
2022-10-18T00:54:05.184Z,101608.88
2022-10-18T00:57:07.850Z,101597.38
2022-10-18T01:00:10.499Z,101596.50
2022-10-18T01:03:12.758Z,101592.13
2022-10-18T01:06:14.743Z,101578.81
2022-10-18T01:09:42.040Z,101584.25
2022-10-18T01:12:47.920Z,101590.44
2022-10-18T01:16:12.713Z,101577.16
2022-10-18T01:19:33.086Z,101565.63
2022-10-18T01:22:39.733Z,101574.53
2022-10-18T01:25:57.616Z,101568.38
2022-10-18T01:29:18.601Z,101572.84
2022-10-18T01:32:24.037Z,101565.81
2022-10-18T01:35:43.147Z,101564.03
2022-10-18T01:38:47.683Z,101572.94
2022-10-18T01:41:51.377Z,101576.53
2022-10-18T01:44:54.288Z,101576.53
2022-10-18T01:47:57.264Z,101574.78
2022-10-18T01:50:59.414Z,101567.66
2022-10-18T01:54:02.066Z,101574.78
2022-10-18T01:57:26.449Z,101570.31
2022-10-18T02:00:47.962Z,101571.28
2022-10-18T02:03:51.349Z,101576.63
2022-10-18T02:07:01.019Z,101577.50
2022-10-18T02:10:16.075Z,101580.19
2022-10-18T02:13:21.358Z,101589.94
2022-10-18T02:16:27.114Z,101576.59
2022-10-18T02:19:35.147Z,101579.28
2022-10-18T02:22:38.174Z,101564.16
2022-10-18T02:25:40.461Z,101573.97
2022-10-18T02:28:42.814Z,101572.19
2022-10-18T02:31:50.179Z,101576.63
2022-10-18T02:34:59.288Z,101577.50
2022-10-18T02:38:03.047Z,101573.97
2022-10-18T02:41:05.193Z,101574.88
2022-10-18T02:44:07.434Z,101564.19
2022-10-18T02:47:10.654Z,101563.28
2022-10-18T02:50:13.346Z,101572.19
2022-10-18T02:53:15.381Z,101578.44
2022-10-18T02:56:17.536Z,101584.63
2022-10-18T02:59:19.736Z,101572.19
2022-10-18T03:02:22.278Z,101575.69
2022-10-18T03:05:24.388Z,101579.22
2022-10-18T03:08:26.856Z,101577.44
2022-10-18T03:11:28.860Z,101582.75
2022-10-18T03:14:31.092Z,101584.56
2022-10-18T03:17:33.439Z,101581.88
2022-10-18T03:20:35.948Z,101570.28
2022-10-18T03:23:37.988Z,101571.19
2022-10-18T03:26:40.342Z,101564.00
2022-10-18T03:29:42.314Z,101571.13
2022-10-18T03:32:44.543Z,101567.59
2022-10-18T03:35:46.614Z,101572.03
2022-10-18T03:38:48.906Z,101571.13
2022-10-18T03:41:51.099Z,101575.59
2022-10-18T03:44:53.452Z,101580.00
2022-10-18T03:47:55.434Z,101576.47
2022-10-18T03:50:57.805Z,101580.91
2022-10-18T03:53:59.848Z,101575.50
2022-10-18T03:57:02.045Z,101576.41
2022-10-18T04:00:04.848Z,101579.09
2022-10-18T04:03:14.027Z,101583.50
2022-10-18T04:06:16.166Z,101572.78
2022-10-18T04:09:18.713Z,101573.69
2022-10-18T04:12:20.855Z,101586.97
2022-10-18T04:15:23.465Z,101583.47
2022-10-18T04:18:25.442Z,101579.88
2022-10-18T04:21:28.124Z,101584.28
2022-10-18T04:24:30.441Z,101589.50
2022-10-18T04:27:33.010Z,101585.00
2022-10-18T04:30:35.519Z,101588.59
2022-10-18T04:33:38.253Z,101589.47
2022-10-18T04:36:41.024Z,101591.25
2022-10-18T04:39:49.847Z,101601.81
2022-10-18T04:42:54.766Z,101603.59
2022-10-18T04:45:57.164Z,101606.19
2022-10-18T04:49:01.196Z,101599.16
2022-10-18T04:52:04.259Z,101600.94
2022-10-18T04:55:06.744Z,101599.16
2022-10-18T04:58:08.969Z,101598.22
2022-10-18T05:01:11.368Z,101605.34
2022-10-18T05:04:13.812Z,101605.28
2022-10-18T05:07:15.897Z,101607.88
2022-10-18T05:10:18.198Z,101601.63
2022-10-18T05:13:20.218Z,101606.03
2022-10-18T05:16:22.682Z,101603.34
2022-10-18T05:19:24.719Z,101614.91
2022-10-18T05:22:27.092Z,101618.41
2022-10-18T05:25:30.251Z,101613.06
2022-10-18T05:28:39.735Z,101622.75
2022-10-18T05:31:42.706Z,101616.47
2022-10-18T05:34:44.988Z,101618.19
2022-10-18T05:37:47.150Z,101621.66
2022-10-18T05:40:49.610Z,101629.69
2022-10-18T05:43:52.053Z,101625.25
2022-10-18T05:46:54.375Z,101630.59
2022-10-18T05:49:56.492Z,101634.19
2022-10-18T05:53:06.957Z,101639.50
2022-10-18T05:56:15.021Z,101632.28
2022-10-18T05:59:17.211Z,101636.75
2022-10-18T06:02:19.535Z,101642.94
2022-10-18T06:05:21.937Z,101642.09
2022-10-18T06:08:23.961Z,101638.53
2022-10-18T06:11:26.485Z,101627.88
2022-10-18T06:14:28.614Z,101641.31
2022-10-18T06:17:32.589Z,101644.91
2022-10-18T06:20:34.937Z,101647.59
2022-10-18T06:23:37.654Z,101655.72
2022-10-18T06:26:39.745Z,101655.81
2022-10-18T06:29:42.017Z,101664.78
2022-10-18T06:32:44.030Z,101664.78
2022-10-18T06:36:00.612Z,101652.41
2022-10-18T06:39:02.689Z,101653.41
2022-10-18T06:42:04.981Z,101654.31
2022-10-18T06:45:10.237Z,101654.38
2022-10-18T06:48:12.710Z,101667.84
2022-10-18T06:51:15.527Z,101665.25
2022-10-18T06:54:18.935Z,101658.19
2022-10-18T06:57:21.849Z,101660.03
2022-10-18T07:00:24.116Z,101663.63
2022-10-18T07:03:26.350Z,101665.47
2022-10-18T07:06:28.669Z,101656.63
2022-10-18T07:09:30.798Z,101645.97
2022-10-18T07:12:33.667Z,101640.72
2022-10-18T07:15:38.613Z,101639.84
2022-10-18T07:18:48.521Z,101641.63
2022-10-18T07:21:50.503Z,101646.09
2022-10-18T07:24:52.834Z,101649.69
2022-10-18T07:27:54.825Z,101647.94
2022-10-18T07:30:57.153Z,101643.50
2022-10-18T07:33:59.208Z,101651.56
2022-10-18T07:37:02.203Z,101649.78
2022-10-18T07:40:04.642Z,101646.25
2022-10-18T07:43:10.258Z,101650.72
2022-10-18T07:46:15.408Z,101638.25
2022-10-18T07:49:18.147Z,101639.13
2022-10-18T07:52:20.135Z,101632.03
2022-10-18T07:55:22.430Z,101628.47
2022-10-18T07:58:24.624Z,101627.53
2022-10-18T08:01:27.002Z,101621.25
2022-10-18T08:04:29.039Z,101613.16
2022-10-18T08:07:33.354Z,101606.91
2022-10-18T08:10:36.256Z,101613.94
2022-10-18T08:13:38.619Z,101607.66
2022-10-18T08:16:40.612Z,101604.84
2022-10-18T08:19:52.817Z,101609.22
2022-10-18T08:23:05.205Z,101606.44
2022-10-18T08:26:10.599Z,101602.72
2022-10-18T08:29:31.645Z,101607.91
2022-10-18T08:32:34.553Z,101604.19
2022-10-18T08:35:37.013Z,101604.06
2022-10-18T08:38:40.795Z,101600.44
2022-10-18T08:42:10.731Z,101602.19
2022-10-18T08:45:30.228Z,101604.81
2022-10-18T08:48:44.796Z,101592.22
2022-10-18T08:51:49.502Z,101600.00
2022-10-18T08:55:05.332Z,101609.75
2022-10-18T08:58:27.430Z,101598.00
2022-10-18T09:05:01.203Z,101591.56
2022-10-18T09:08:40.481Z,101593.41
2022-10-18T09:11:51.866Z,101596.09
2022-10-18T09:15:25.207Z,101586.94
2022-10-18T09:18:30.578Z,101579.53
2022-10-18T09:21:52.883Z,101575.84
2022-10-18T09:25:03.483Z,101575.50
2022-10-18T09:28:08.501Z,101569.75
2022-10-18T09:31:41.690Z,101560.44
2022-10-18T09:34:53.645Z,101551.75
2022-10-18T09:38:05.035Z,101542.38
2022-10-18T09:41:58.340Z,101534.56
2022-10-18T09:45:23.107Z,101531.47
2022-10-18T09:48:31.552Z,101533.69
2022-10-18T09:51:39.258Z,101523.50
2022-10-18T09:54:49.558Z,101520.28
2022-10-18T09:57:55.912Z,101525.81
2022-10-18T10:00:58.230Z,101518.28
2022-10-18T10:04:00.492Z,101514.16
2022-10-18T10:07:02.780Z,101506.97
2022-10-18T10:10:08.604Z,101509.25
2022-10-18T10:13:29.280Z,101507.06
2022-10-18T10:16:31.535Z,101506.56
2022-10-18T10:19:37.496Z,101498.34
2022-10-18T10:22:40.858Z,101498.50
2022-10-18T10:25:43.024Z,101500.47
2022-10-18T10:28:48.694Z,101487.16
2022-10-18T10:32:04.528Z,101481.50
2022-10-18T10:35:42.107Z,101477.84
2022-10-18T10:39:11.227Z,101469.00
2022-10-18T10:42:13.655Z,101467.19
2022-10-18T10:45:15.771Z,101474.03
2022-10-18T10:48:19.671Z,101463.69
2022-10-18T10:51:34.091Z,101456.94
2022-10-18T10:54:39.118Z,101452.19
2022-10-18T10:57:45.129Z,101445.44
2022-10-18T11:00:47.325Z,101451.63
2022-10-18T11:03:52.258Z,101448.84
2022-10-18T11:07:11.388Z,101439.81
2022-10-18T11:10:23.176Z,101437.84
2022-10-18T11:13:45.601Z,101441.56
2022-10-18T11:16:52.288Z,101427.19
2022-10-18T11:20:10.676Z,101435.38
2022-10-18T11:23:15.180Z,101426.22
2022-10-18T11:26:43.690Z,101414.06
2022-10-18T11:29:49.880Z,101410.41
2022-10-18T11:33:16.702Z,101406.56
2022-10-18T11:36:25.028Z,101411.88
2022-10-18T11:39:34.121Z,101412.88
2022-10-18T11:42:49.711Z,101402.25
2022-10-18T11:46:02.044Z,101401.38
2022-10-18T11:49:19.459Z,101398.88
2022-10-18T11:52:36.136Z,101404.94
2022-10-18T11:55:59.226Z,101403.44
2022-10-18T11:59:20.307Z,101387.56
2022-10-18T12:03:04.383Z,101381.50
2022-10-18T12:06:14.038Z,101370.59
2022-10-18T12:09:43.981Z,101365.84
2022-10-18T12:13:02.172Z,101363.00
2022-10-18T12:16:05.682Z,101358.44
2022-10-18T12:19:22.131Z,101366.38
2022-10-18T12:22:35.875Z,101351.97
2022-10-18T12:25:41.563Z,101341.31
2022-10-18T12:29:03.091Z,101333.44
2022-10-18T12:32:11.199Z,101332.63
2022-10-18T12:35:16.656Z,101329.72
2022-10-18T12:38:27.543Z,101320.22
2022-10-18T12:41:34.138Z,101315.88
2022-10-18T12:44:36.550Z,101325.16
2022-10-18T12:47:38.648Z,101308.84
2022-10-18T12:50:42.804Z,101312.41
2022-10-18T12:53:51.547Z,101305.03
2022-10-18T12:56:53.764Z,101307.47
2022-10-18T12:59:55.832Z,101300.94
2022-10-18T13:03:27.538Z,101295.63
2022-10-18T13:06:58.709Z,101294.75
2022-10-18T13:10:10.321Z,101290.28
2022-10-18T13:13:38.767Z,101284.84
2022-10-18T13:16:50.803Z,101297.00
2022-10-18T13:20:20.628Z,101292.56
2022-10-18T13:24:03.273Z,101285.53
2022-10-18T13:27:35.970Z,101279.25
2022-10-18T13:31:09.469Z,101282.03
2022-10-18T13:34:35.237Z,101269.78
2022-10-18T13:37:37.573Z,101288.56
2022-10-18T13:40:39.959Z,101276.34
2022-10-18T13:44:10.656Z,101266.69
2022-10-18T13:47:14.839Z,101258.00
2022-10-18T13:50:56.054Z,101254.38
2022-10-18T13:54:13.368Z,101258.88
2022-10-18T13:57:52.966Z,101257.94
2022-10-18T14:00:59.295Z,101246.28
2022-10-18T14:04:20.112Z,101243.03
2022-10-18T14:07:22.416Z,101236.91
2022-10-18T14:11:01.309Z,101248.63
2022-10-18T14:14:09.445Z,101242.38
2022-10-18T14:17:17.615Z,101247.81
2022-10-18T14:20:27.369Z,101228.97
2022-10-18T14:23:38.014Z,101233.56
2022-10-18T14:29:42.399Z,101222.91
2022-10-18T14:32:54.536Z,101232.16
2022-10-18T14:36:03.364Z,101239.66
2022-10-18T14:39:07.173Z,101208.41
2022-10-18T14:42:21.176Z,101182.81
2022-10-18T14:45:24.295Z,101183.06
2022-10-18T14:48:26.511Z,101204.47
2022-10-18T14:51:31.894Z,101216.16
2022-10-18T14:54:38.031Z,101237.72
2022-10-18T14:57:40.203Z,101225.56
2022-10-18T15:00:45.087Z,101210.47
2022-10-18T15:03:50.168Z,101193.41
2022-10-18T15:06:52.553Z,101175.03
2022-10-18T15:09:56.963Z,101180.41
2022-10-18T15:13:09.727Z,101186.56
2022-10-18T15:16:17.839Z,101180.41
2022-10-18T15:19:36.148Z,101197.19
2022-10-18T15:22:38.606Z,101208.88
2022-10-18T15:25:43.858Z,101228.56
2022-10-18T15:28:53.625Z,101231.47
2022-10-18T15:32:06.021Z,101226.34
2022-10-18T15:35:14.470Z,101217.63
2022-10-18T15:38:26.467Z,101203.34
2022-10-18T15:41:38.943Z,101193.41
2022-10-18T15:44:51.212Z,101207.03
2022-10-18T15:48:02.349Z,101227.81
2022-10-18T15:51:10.237Z,101239.53
2022-10-18T15:54:18.586Z,101246.78
2022-10-18T15:57:21.168Z,101248.59
2022-10-18T16:00:23.334Z,101271.91
2022-10-18T16:03:26.189Z,101273.78
2022-10-18T16:06:28.667Z,101269.25
2022-10-18T16:09:31.413Z,101267.38
2022-10-18T16:12:34.095Z,101272.75
2022-10-18T16:15:36.964Z,101271.16
2022-10-18T16:18:39.934Z,101271.06
2022-10-18T16:21:42.636Z,101259.38
2022-10-18T16:24:44.663Z,101259.44
2022-10-18T16:27:47.120Z,101238.91
2022-10-18T16:30:57.150Z,101244.16
2022-10-18T16:34:00.382Z,101273.94
2022-10-18T16:37:02.848Z,101280.31
2022-10-18T16:40:25.353Z,101274.03
2022-10-18T16:43:27.871Z,101254.34
2022-10-18T16:46:34.027Z,101287.78
2022-10-18T16:49:36.434Z,101295.94
2022-10-18T16:52:39.234Z,101299.59
2022-10-18T16:55:44.012Z,101309.66
2022-10-18T16:58:48.822Z,101317.00
2022-10-18T17:01:51.269Z,101317.22
2022-10-18T17:04:55.471Z,101320.09
2022-10-18T17:07:57.508Z,101322.75
2022-10-18T17:11:00.125Z,101324.47
2022-10-18T17:14:02.149Z,101317.34
2022-10-18T17:17:04.574Z,101306.63
2022-10-18T17:20:08.783Z,101307.47
2022-10-18T17:23:11.705Z,101310.16
2022-10-18T17:26:28.539Z,101315.50
2022-10-18T17:29:32.923Z,101327.94
2022-10-18T17:32:35.645Z,101334.28
2022-10-18T17:35:38.609Z,101346.72
2022-10-18T17:38:41.302Z,101335.97
2022-10-18T17:41:44.038Z,101345.97
2022-10-18T17:44:46.406Z,101328.16
2022-10-18T17:47:49.033Z,101325.38
2022-10-18T17:50:51.310Z,101325.38
2022-10-18T17:53:55.959Z,101316.47
2022-10-18T17:57:00.165Z,101304.81
2022-10-18T18:00:08.424Z,101299.41
2022-10-18T18:03:17.888Z,101283.44
2022-10-18T18:06:24.483Z,101271.13
2022-10-18T18:09:27.684Z,101253.34
2022-10-18T18:12:35.328Z,101270.22
2022-10-18T18:15:40.356Z,101283.50
2022-10-18T18:18:43.546Z,101280.88
2022-10-18T18:21:45.769Z,101296.88
2022-10-18T18:24:48.149Z,101309.38
2022-10-18T18:27:50.355Z,101320.13
2022-10-18T18:30:53.375Z,101321.03
2022-10-18T18:33:57.702Z,101317.53
2022-10-18T18:37:01.124Z,101315.72
2022-10-18T18:40:05.013Z,101326.44
2022-10-18T18:43:22.861Z,101326.50
2022-10-18T18:46:28.097Z,101332.97
2022-10-18T18:49:32.383Z,101327.63
2022-10-18T18:52:35.754Z,101318.72
2022-10-18T18:55:45.300Z,101314.22
2022-10-18T18:58:50.456Z,101317.88
2022-10-18T19:01:53.604Z,101326.75
2022-10-18T19:04:58.157Z,101327.69
2022-10-18T19:08:01.710Z,101297.44
2022-10-18T19:11:08.961Z,101304.47
2022-10-18T19:14:12.148Z,101300.03
2022-10-18T19:17:14.887Z,101308.13
2022-10-18T19:20:20.355Z,101303.66
2022-10-18T19:23:23.099Z,101307.19
2022-10-18T19:26:39.119Z,101304.53
2022-10-18T19:29:43.365Z,101307.19
2022-10-18T19:32:52.951Z,101304.50
2022-10-18T19:35:56.116Z,101303.59
2022-10-18T19:38:59.085Z,101306.25
2022-10-18T19:42:04.610Z,101316.88
2022-10-18T19:45:09.088Z,101308.91
2022-10-18T19:48:13.340Z,101311.53
2022-10-18T19:51:20.245Z,101307.13
2022-10-18T19:54:26.892Z,101307.16
2022-10-18T19:57:29.686Z,101308.03
2022-10-18T20:00:31.936Z,101302.69
2022-10-18T20:03:35.789Z,101295.63
2022-10-18T20:06:38.969Z,101295.63
2022-10-18T20:09:41.612Z,101300.94
2022-10-18T20:12:43.618Z,101300.13
2022-10-18T20:15:50.952Z,101299.28
2022-10-18T20:19:01.322Z,101293.97
2022-10-18T20:22:03.654Z,101296.69
2022-10-18T20:25:05.887Z,101298.47
2022-10-18T20:28:08.242Z,101288.63
2022-10-18T20:31:12.707Z,101296.66
2022-10-18T20:34:15.063Z,101299.34
2022-10-18T20:37:17.096Z,101288.69
2022-10-18T20:40:19.345Z,101289.56
2022-10-18T20:43:21.486Z,101296.75
2022-10-18T20:46:23.765Z,101297.66
2022-10-18T20:49:25.956Z,101297.69
2022-10-18T20:52:28.406Z,101306.63
2022-10-18T20:55:30.500Z,101293.28
2022-10-18T20:58:33.806Z,101298.63
2022-10-18T21:01:37.056Z,101298.63
2022-10-18T21:04:42.182Z,101296.84
2022-10-18T21:07:44.552Z,101294.19
2022-10-18T21:10:46.919Z,101298.66
2022-10-18T21:13:53.305Z,101285.31
2022-10-18T21:16:55.479Z,101294.22
2022-10-18T21:19:57.449Z,101288.88
2022-10-18T21:22:59.658Z,101297.78
2022-10-18T21:26:01.836Z,101298.63
2022-10-18T21:29:06.547Z,101293.31
2022-10-18T21:32:08.591Z,101295.13
2022-10-18T21:35:11.413Z,101287.94
2022-10-18T21:38:13.397Z,101288.84
2022-10-18T21:41:16.828Z,101289.72
2022-10-18T21:44:18.981Z,101287.97
2022-10-18T21:47:21.224Z,101295.97
2022-10-18T21:50:23.186Z,101293.31
2022-10-18T21:53:25.323Z,101291.50
2022-10-18T21:56:29.896Z,101300.44
2022-10-18T21:59:32.198Z,101298.59
2022-10-18T22:02:35.161Z,101291.56
2022-10-18T22:05:37.696Z,101286.19
2022-10-18T22:08:44.753Z,101286.19
2022-10-18T22:11:50.301Z,101279.03
2022-10-18T22:14:52.322Z,101278.22
2022-10-18T22:17:54.526Z,101279.09
2022-10-18T22:20:58.362Z,101275.53
2022-10-18T22:24:04.618Z,101278.22
2022-10-18T22:27:06.682Z,101277.31
2022-10-18T22:30:09.495Z,101278.22
2022-10-18T22:33:11.587Z,101275.50
2022-10-18T22:36:14.094Z,101274.59
2022-10-18T22:39:16.869Z,101275.50
2022-10-18T22:42:19.035Z,101267.50
2022-10-18T22:45:21.022Z,101271.09
2022-10-18T22:48:23.187Z,101267.59
2022-10-18T22:51:25.581Z,101275.56
2022-10-18T22:54:27.828Z,101278.28
2022-10-18T22:57:30.189Z,101264.91
2022-10-18T23:00:32.447Z,101272.03
2022-10-18T23:03:34.946Z,101273.84
2022-10-18T23:06:37.191Z,101276.53
2022-10-18T23:12:42.418Z,101274.78
2022-10-18T23:15:44.487Z,101281.03
2022-10-18T23:18:51.677Z,101273.03
2022-10-18T23:21:53.635Z,101262.38
2022-10-18T23:24:55.866Z,101269.50
2022-10-18T23:27:58.036Z,101279.34
2022-10-18T23:31:08.686Z,101281.16
2022-10-18T23:34:10.798Z,101271.38
2022-10-18T23:37:13.073Z,101266.94
2022-10-18T23:40:15.231Z,101273.19
2022-10-18T23:43:17.392Z,101266.09
2022-10-18T23:46:20.312Z,101276.78
2022-10-18T23:49:22.495Z,101270.53
2022-10-18T23:52:24.863Z,101272.34
2022-10-18T23:55:27.042Z,101270.56
2022-10-18T23:58:30.838Z,101270.53
